Terminal Aerodrome Forecast
Issued by NWS Wakefield, VA

Home | Current Version | Previous Version | Text Only | Print | Product List | Glossary On
Versions: 1 2 3 4 5 6 7 8 9 10 11 12 13 14 15
051
FTUS41 KAKQ 081739
TAFRIC
TAF
KRIC 081739Z 0818/0918 14003KT P6SM BKN250
     FM082200 14006KT P6SM OVC090
     FM090100 12005KT 5SM -RA BR SCT012 BKN020
     FM090500 22005KT P6SM BKN015
     FM091100 28008KT P6SM SCT015 BKN080
     FM091600 27007KT P6SM BKN035=

USA.gov is the U.S. government's official web portal to all federal, state and local government web resources and services.